createdAt,value
2023-03-29T00:00:04.925Z,508.29
2023-03-29T00:01:04.915Z,501.01
2023-03-29T00:02:04.946Z,496.14
2023-03-29T00:03:05.111Z,497.63
2023-03-29T00:04:05.008Z,501.76
2023-03-29T00:05:04.876Z,502.14
2023-03-29T00:06:04.863Z,503.28
2023-03-29T00:07:05.066Z,516.99
2023-03-29T00:08:04.864Z,508.29
2023-03-29T00:09:04.831Z,507.13
2023-03-29T00:10:04.836Z,526.41
2023-03-29T00:11:05.051Z,558.73
2023-03-29T00:12:04.805Z,582.75
2023-03-29T00:13:04.760Z,606.15
2023-03-29T00:14:04.760Z,609.48
2023-03-29T00:15:04.752Z,614.56
2023-03-29T00:16:04.735Z,622.04
2023-03-29T00:17:04.741Z,623.79
2023-03-29T00:18:04.739Z,634.51
2023-03-29T00:19:04.698Z,645.61
2023-03-29T00:20:04.675Z,653.23
2023-03-29T00:21:04.809Z,666.33
2023-03-29T00:22:04.642Z,657.76
2023-03-29T00:23:04.638Z,652.59
2023-03-29T00:24:04.630Z,648.77
2023-03-29T00:25:04.609Z,657.11
2023-03-29T00:26:07.151Z,663.01
2023-03-29T00:27:04.583Z,654.52
2023-03-29T00:28:04.565Z,650.03
2023-03-29T00:29:04.571Z,641.87
2023-03-29T00:30:04.543Z,617.99
2023-03-29T00:31:04.808Z,619.14
2023-03-29T00:32:04.519Z,615.70
2023-03-29T00:33:04.562Z,606.15
2023-03-29T00:34:04.510Z,590.52
2023-03-29T00:35:04.480Z,574.19
2023-03-29T00:36:04.608Z,558.73
2023-03-29T00:37:04.477Z,548.13
2023-03-29T00:38:04.451Z,535.75
2023-03-29T00:39:04.444Z,529.35
2023-03-29T00:40:04.420Z,524.34
2023-03-29T00:41:04.613Z,523.51
2023-03-29T00:42:04.404Z,520.23
2023-03-29T00:43:04.381Z,514.99
2023-03-29T00:44:04.387Z,513.00
2023-03-29T00:45:04.366Z,512.60
2023-03-29T00:46:04.354Z,507.51
2023-03-29T00:47:04.327Z,496.14
2023-03-29T00:48:04.340Z,486.34
2023-03-29T00:49:04.324Z,478.63
2023-03-29T00:50:04.330Z,470.83
2023-03-29T00:51:04.589Z,472.84
2023-03-29T00:52:04.284Z,463.92
2023-03-29T00:53:04.265Z,451.93
2023-03-29T00:54:04.243Z,441.12
2023-03-29T00:55:04.269Z,437.64
2023-03-29T00:56:04.219Z,433.36
2023-03-29T00:57:04.349Z,420.73
2023-03-29T00:58:04.191Z,412.12
2023-03-29T00:59:04.180Z,398.28
2023-03-29T01:00:04.166Z,386.47
2023-03-29T01:01:04.418Z,369.07
2023-03-29T01:02:04.253Z,362.52
2023-03-29T01:03:04.251Z,342.76
2023-03-29T01:04:04.306Z,331.96
2023-03-29T01:05:04.123Z,315.31
2023-03-29T01:06:04.100Z,300.81
2023-03-29T01:07:04.152Z,282.36
2023-03-29T01:08:04.062Z,266.04
2023-03-29T01:09:04.098Z,246.02
2023-03-29T01:10:04.062Z,235.22
2023-03-29T01:11:04.269Z,224.40
2023-03-29T01:12:04.060Z,218.26
2023-03-29T01:13:04.033Z,212.03
2023-03-29T01:14:04.021Z,205.37
2023-03-29T01:15:04.002Z,202.82
2023-03-29T01:16:04.063Z,196.72
2023-03-29T01:17:03.975Z,189.42
2023-03-29T01:18:04.012Z,185.55
2023-03-29T01:19:03.939Z,181.30
2023-03-29T01:20:03.935Z,173.36
2023-03-29T01:21:04.097Z,168.27
2023-03-29T01:22:03.905Z,162.35
2023-03-29T01:23:03.906Z,159.24
2023-03-29T01:24:03.889Z,153.65
2023-03-29T01:25:03.865Z,146.60
2023-03-29T01:26:03.870Z,139.01
2023-03-29T01:27:03.845Z,135.71
2023-03-29T01:28:03.811Z,132.05
2023-03-29T01:29:03.798Z,130.90
2023-03-29T01:30:03.795Z,128.88
2023-03-29T01:31:04.032Z,129.08
2023-03-29T01:32:03.813Z,130.19
2023-03-29T01:33:03.824Z,129.68
2023-03-29T01:34:03.767Z,127.59
2023-03-29T01:35:03.749Z,128.58
2023-03-29T01:36:03.737Z,120.47
2023-03-29T01:37:03.699Z,118.83
2023-03-29T01:38:03.688Z,119.00
2023-03-29T01:39:03.696Z,117.57
2023-03-29T01:40:03.659Z,116.91
2023-03-29T01:41:04.180Z,114.58
2023-03-29T01:42:03.637Z,116.01
2023-03-29T01:43:03.628Z,116.91
2023-03-29T01:44:03.610Z,118.16
2023-03-29T01:45:03.615Z,117.41
2023-03-29T01:46:03.636Z,116.26
2023-03-29T01:47:03.576Z,114.50
2023-03-29T01:48:03.618Z,112.86
2023-03-29T01:49:03.567Z,112.71
2023-03-29T01:50:03.595Z,111.80
2023-03-29T01:51:03.788Z,111.88
2023-03-29T01:52:03.522Z,114.10
2023-03-29T01:53:03.496Z,114.73
2023-03-29T01:54:03.472Z,115.45
2023-03-29T01:55:03.472Z,117.66
2023-03-29T01:56:03.458Z,117.00
2023-03-29T01:57:03.483Z,117.91
2023-03-29T01:58:03.426Z,119.35
2023-03-29T01:59:03.417Z,121.35
2023-03-29T02:00:03.471Z,123.70
2023-03-29T02:01:03.671Z,128.38
2023-03-29T02:02:03.382Z,131.63
2023-03-29T02:03:03.457Z,132.57
2023-03-29T02:04:03.367Z,130.49
2023-03-29T02:05:03.344Z,127.30
2023-03-29T02:06:03.348Z,124.62
2023-03-29T02:07:03.339Z,122.60
2023-03-29T02:08:03.291Z,121.79
2023-03-29T02:09:03.310Z,122.78
2023-03-29T02:10:03.276Z,124.81
2023-03-29T02:11:03.390Z,125.57
2023-03-29T02:12:03.258Z,122.78
2023-03-29T02:13:03.234Z,121.44
2023-03-29T02:14:03.255Z,115.21
2023-03-29T02:15:03.230Z,114.10
2023-03-29T02:16:03.300Z,114.26
2023-03-29T02:17:03.187Z,115.05
2023-03-29T02:18:03.201Z,116.10
2023-03-29T02:19:03.164Z,115.05
2023-03-29T02:20:03.141Z,112.71
2023-03-29T02:21:03.416Z,110.03
2023-03-29T02:22:03.132Z,106.03
2023-03-29T02:23:03.117Z,106.78
2023-03-29T02:24:03.092Z,104.76
2023-03-29T02:25:03.127Z,104.10
2023-03-29T02:26:03.078Z,104.69
2023-03-29T02:27:03.052Z,104.62
2023-03-29T02:28:03.065Z,106.64
2023-03-29T02:29:03.038Z,108.45
2023-03-29T02:30:03.046Z,112.18
2023-03-29T02:31:03.359Z,113.48
2023-03-29T02:32:02.994Z,115.77
2023-03-29T02:33:03.049Z,118.07
2023-03-29T02:34:02.969Z,120.12
2023-03-29T02:35:02.964Z,123.15
2023-03-29T02:36:02.993Z,119.52
2023-03-29T02:37:02.944Z,118.75
2023-03-29T02:38:02.924Z,117.99
2023-03-29T02:39:02.906Z,118.33
2023-03-29T02:40:02.889Z,120.30
2023-03-29T02:41:03.211Z,122.33
2023-03-29T02:42:02.865Z,122.33
2023-03-29T02:43:02.858Z,120.04
2023-03-29T02:44:02.846Z,119.95
2023-03-29T02:45:02.838Z,118.07
2023-03-29T02:46:02.847Z,113.33
2023-03-29T02:47:02.986Z,107.61
2023-03-29T02:48:02.938Z,104.23
2023-03-29T02:49:02.792Z,104.82
2023-03-29T02:50:02.864Z,103.65
2023-03-29T02:51:03.029Z,103.71
2023-03-29T02:52:02.747Z,102.06
2023-03-29T02:53:02.758Z,101.62
2023-03-29T02:54:02.730Z,101.06
2023-03-29T02:55:02.715Z,101.00
2023-03-29T02:56:02.712Z,99.61
2023-03-29T02:57:02.720Z,97.17
2023-03-29T02:58:02.707Z,95.16
2023-03-29T02:59:02.653Z,95.16
2023-03-29T03:00:02.639Z,96.26
2023-03-29T03:01:02.866Z,96.82
2023-03-29T03:02:02.673Z,95.93
2023-03-29T03:03:02.662Z,95.95
2023-03-29T03:04:02.658Z,93.99
2023-03-29T03:05:02.596Z,94.42
2023-03-29T03:06:02.573Z,94.42
2023-03-29T03:07:02.556Z,95.07
2023-03-29T03:08:02.559Z,95.18
2023-03-29T03:09:02.531Z,94.84
2023-03-29T03:10:02.532Z,95.95
2023-03-29T03:11:02.848Z,93.99
2023-03-29T03:12:02.530Z,93.15
2023-03-29T03:13:02.487Z,95.29
2023-03-29T03:14:02.474Z,96.32
2023-03-29T03:15:02.551Z,97.79
2023-03-29T03:16:02.479Z,96.77
2023-03-29T03:17:04.525Z,96.15
2023-03-29T03:18:02.446Z,95.27
2023-03-29T03:19:02.408Z,95.54
2023-03-29T03:20:02.415Z,95.71
2023-03-29T03:21:02.589Z,96.60
2023-03-29T03:22:02.359Z,97.11
2023-03-29T03:23:02.384Z,96.32
2023-03-29T03:24:02.361Z,94.89
2023-03-29T03:25:02.320Z,97.39
2023-03-29T03:26:02.337Z,98.43
2023-03-29T03:27:02.297Z,100.33
2023-03-29T03:28:02.292Z,102.43
2023-03-29T03:29:02.286Z,104.43
2023-03-29T03:30:02.298Z,102.62
2023-03-29T03:31:02.449Z,101.68
2023-03-29T03:32:02.274Z,100.27
2023-03-29T03:33:02.247Z,100.45
2023-03-29T03:34:02.215Z,101.06
2023-03-29T03:35:02.231Z,101.31
2023-03-29T03:36:02.224Z,102.12
2023-03-29T03:37:02.172Z,103.65
2023-03-29T03:38:02.147Z,105.09
2023-03-29T03:39:02.139Z,104.62
2023-03-29T03:40:02.185Z,104.49
2023-03-29T03:41:02.491Z,102.18
2023-03-29T03:42:02.102Z,98.14
2023-03-29T03:43:02.100Z,95.22
2023-03-29T03:44:02.088Z,95.18
2023-03-29T03:45:02.071Z,93.57
2023-03-29T03:46:02.158Z,91.92
2023-03-29T03:47:02.037Z,92.12
2023-03-29T03:48:02.081Z,91.21
2023-03-29T03:49:02.019Z,90.02
2023-03-29T03:50:02.039Z,88.87
2023-03-29T03:51:02.162Z,87.37
2023-03-29T03:52:01.968Z,86.38
2023-03-29T03:53:01.959Z,83.60
2023-03-29T03:54:02.002Z,82.52
2023-03-29T03:55:01.997Z,82.27
2023-03-29T03:56:01.933Z,81.79
2023-03-29T03:57:01.921Z,80.44
2023-03-29T03:58:01.904Z,78.99
2023-03-29T03:59:01.890Z,76.94
2023-03-29T04:00:01.872Z,74.86
2023-03-29T04:01:02.035Z,72.83
2023-03-29T04:02:01.887Z,69.89
2023-03-29T04:03:01.941Z,68.23
2023-03-29T04:04:01.913Z,66.91
2023-03-29T04:05:01.861Z,66.86
2023-03-29T04:06:01.816Z,68.73
2023-03-29T04:07:01.785Z,68.85
2023-03-29T04:08:01.789Z,68.28
2023-03-29T04:09:01.769Z,68.34
2023-03-29T04:10:01.761Z,67.95
2023-03-29T04:11:01.953Z,65.54
2023-03-29T04:12:01.728Z,65.18
2023-03-29T04:13:01.709Z,62.62
2023-03-29T04:14:01.698Z,61.92
2023-03-29T04:15:01.678Z,63.00
2023-03-29T04:16:02.027Z,62.81
2023-03-29T04:17:01.690Z,62.58
2023-03-29T04:18:01.748Z,62.62
2023-03-29T04:19:01.708Z,63.83
2023-03-29T04:20:01.635Z,64.82
2023-03-29T04:21:01.837Z,68.23
2023-03-29T04:22:01.595Z,68.28
2023-03-29T04:23:01.594Z,70.18
2023-03-29T04:24:01.581Z,72.77
2023-03-29T04:25:01.547Z,74.06
2023-03-29T04:26:01.549Z,73.80
2023-03-29T04:27:01.531Z,71.39
2023-03-29T04:28:01.518Z,68.06
2023-03-29T04:29:01.503Z,64.42
2023-03-29T04:30:01.500Z,61.56
2023-03-29T04:31:01.769Z,62.86
2023-03-29T04:32:01.477Z,63.00
2023-03-29T04:33:01.493Z,63.15
2023-03-29T04:34:01.437Z,67.12
2023-03-29T04:35:01.432Z,70.24
2023-03-29T04:36:01.462Z,70.66
2023-03-29T04:37:01.430Z,72.64
2023-03-29T04:38:01.400Z,74.39
2023-03-29T04:39:01.611Z,72.77
2023-03-29T04:40:01.375Z,70.18
2023-03-29T04:41:01.536Z,70.60
2023-03-29T04:42:01.367Z,71.39
2023-03-29T04:43:01.339Z,70.13
2023-03-29T04:44:01.315Z,72.45
2023-03-29T04:45:01.379Z,73.15
2023-03-29T04:46:01.347Z,76.17
2023-03-29T04:47:01.280Z,78.69
2023-03-29T04:48:01.328Z,82.27
2023-03-29T04:49:01.252Z,80.29
2023-03-29T04:50:01.266Z,80.60
2023-03-29T04:51:01.368Z,80.99
2023-03-29T04:52:01.204Z,85.14
2023-03-29T04:53:01.198Z,86.38
2023-03-29T04:54:01.213Z,90.22
2023-03-29T04:55:01.209Z,95.18
2023-03-29T04:56:01.174Z,101.25
2023-03-29T04:57:01.187Z,106.57
2023-03-29T04:58:01.135Z,116.58
2023-03-29T04:59:01.137Z,120.73
2023-03-29T05:00:01.169Z,121.44
2023-03-29T05:01:01.330Z,120.12
2023-03-29T05:02:01.115Z,124.16
2023-03-29T05:03:01.115Z,125.09
2023-03-29T05:04:01.103Z,129.08
2023-03-29T05:05:01.045Z,134.94
2023-03-29T05:06:01.048Z,139.12
2023-03-29T05:07:01.029Z,139.59
2023-03-29T05:08:01.021Z,143.20
2023-03-29T05:09:00.992Z,140.89
2023-03-29T05:10:01.046Z,136.27
2023-03-29T05:11:01.228Z,125.00
2023-03-29T05:12:00.975Z,121.44
2023-03-29T05:13:00.957Z,126.52
2023-03-29T05:14:00.960Z,131.42
2023-03-29T05:15:00.967Z,137.62
2023-03-29T05:16:00.948Z,138.89
2023-03-29T05:17:00.893Z,138.43
2023-03-29T05:18:00.966Z,139.94
2023-03-29T05:19:00.876Z,140.53
2023-03-29T05:20:00.874Z,140.18
2023-03-29T05:21:01.062Z,143.32
2023-03-29T05:22:00.909Z,135.49
2023-03-29T05:23:00.818Z,134.94
2023-03-29T05:24:00.821Z,139.82
2023-03-29T05:25:00.803Z,140.53
2023-03-29T05:26:00.792Z,145.45
2023-03-29T05:27:00.779Z,149.37
2023-03-29T05:28:00.796Z,145.71
2023-03-29T05:29:00.752Z,133.21
2023-03-29T05:30:00.725Z,136.27
2023-03-29T05:31:01.173Z,138.54
2023-03-29T05:32:00.777Z,154.08
2023-03-29T05:33:00.724Z,157.14
2023-03-29T05:34:00.702Z,156.84
2023-03-29T05:35:00.658Z,156.25
2023-03-29T05:36:00.655Z,156.69
2023-03-29T05:37:00.654Z,155.96
2023-03-29T05:38:00.638Z,155.96
2023-03-29T05:39:00.606Z,160.47
2023-03-29T05:40:05.753Z,162.04
2023-03-29T05:41:00.815Z,160.16
2023-03-29T05:42:00.585Z,142.46
2023-03-29T05:43:00.624Z,133.11
2023-03-29T05:44:00.572Z,145.71
2023-03-29T05:45:00.541Z,149.24
2023-03-29T05:46:00.579Z,151.69
2023-03-29T05:47:00.512Z,147.78
2023-03-29T05:48:00.574Z,149.91
2023-03-29T05:49:00.550Z,137.17
2023-03-29T05:50:00.513Z,135.94
2023-03-29T05:51:00.657Z,137.97
2023-03-29T05:52:00.473Z,144.06
2023-03-29T05:53:00.453Z,150.59
2023-03-29T05:54:00.449Z,161.88
2023-03-29T05:55:00.409Z,163.63
2023-03-29T05:56:00.429Z,166.08
2023-03-29T05:57:00.440Z,164.12
2023-03-29T05:58:00.383Z,162.51
2023-03-29T05:59:00.397Z,167.93
2023-03-29T06:00:00.364Z,160.32
2023-03-29T06:01:00.648Z,158.79
2023-03-29T06:02:00.475Z,164.77
2023-03-29T06:03:13.282Z,173.36
2023-03-29T06:04:00.386Z,176.67
2023-03-29T06:05:00.351Z,177.05
2023-03-29T06:06:00.275Z,178.76
2023-03-29T06:07:00.268Z,175.37
2023-03-29T06:08:00.245Z,177.24
2023-03-29T06:09:00.240Z,160.78
2023-03-29T06:10:00.225Z,174.82
2023-03-29T06:11:01.865Z,175.74
2023-03-29T06:12:00.196Z,179.15
2023-03-29T06:13:00.223Z,187.47
2023-03-29T06:14:00.196Z,190.86
2023-03-29T06:15:00.157Z,196.24
2023-03-29T06:16:00.154Z,193.00
2023-03-29T06:17:00.162Z,200.83
2023-03-29T06:18:00.269Z,203.45
2023-03-29T06:19:00.137Z,206.15
2023-03-29T06:20:00.141Z,202.82
2023-03-29T06:21:00.267Z,204.21
2023-03-29T06:22:00.097Z,206.80
2023-03-29T06:23:00.128Z,209.45
2023-03-29T06:24:00.101Z,210.80
2023-03-29T06:25:00.058Z,213.69
2023-03-29T06:26:00.121Z,220.91
2023-03-29T06:27:00.031Z,228.96
2023-03-29T06:28:00.018Z,221.81
2023-03-29T06:29:00.012Z,219.58
2023-03-29T06:29:59.982Z,223.79
2023-03-29T06:31:00.084Z,229.93
2023-03-29T06:31:59.964Z,229.93
2023-03-29T06:32:59.965Z,222.27
2023-03-29T06:33:59.981Z,222.27
2023-03-29T06:34:59.933Z,228.96
2023-03-29T06:35:59.982Z,230.09
2023-03-29T06:36:59.908Z,228.64
2023-03-29T06:37:59.881Z,228.16
2023-03-29T06:38:59.891Z,223.79
2023-03-29T06:39:59.883Z,210.39
2023-03-29T06:41:00.032Z,207.59
2023-03-29T06:42:03.512Z,215.38
2023-03-29T06:42:59.862Z,202.07
2023-03-29T06:43:59.802Z,201.69
2023-03-29T06:44:59.783Z,212.86
2023-03-29T06:45:59.853Z,219.14
2023-03-29T06:46:59.770Z,213.69
2023-03-29T06:47:59.795Z,208.51
2023-03-29T06:48:59.763Z,216.81
2023-03-29T06:49:59.727Z,225.80
2023-03-29T06:50:59.786Z,236.93
2023-03-29T06:51:59.713Z,242.91
2023-03-29T06:52:59.703Z,245.65
2023-03-29T06:53:59.681Z,244.18
2023-03-29T06:54:59.680Z,249.21
2023-03-29T06:55:59.676Z,249.21
2023-03-29T06:56:59.666Z,247.14
2023-03-29T06:58:01.809Z,261.36
2023-03-29T06:58:59.617Z,248.64
2023-03-29T06:59:59.611Z,256.85
2023-03-29T07:00:59.682Z,255.04
2023-03-29T07:01:59.606Z,272.47
2023-03-29T07:02:59.600Z,290.13
2023-03-29T07:03:59.610Z,301.36
2023-03-29T07:04:59.547Z,296.44
2023-03-29T07:05:59.521Z,313.80
2023-03-29T07:06:59.506Z,293.78
2023-03-29T07:07:59.495Z,283.34
2023-03-29T07:08:59.489Z,298.61
2023-03-29T07:09:59.492Z,310.23
2023-03-29T07:10:59.764Z,316.54
2023-03-29T07:11:59.441Z,327.64
2023-03-29T07:12:59.429Z,327.31
2023-03-29T07:13:59.443Z,322.47
2023-03-29T07:14:59.588Z,331.63
2023-03-29T07:15:59.496Z,323.11
2023-03-29T07:16:59.382Z,331.96
2023-03-29T07:17:59.444Z,347.12
2023-03-29T07:18:59.368Z,365.77
2023-03-29T07:19:59.499Z,356.98
2023-03-29T07:20:59.396Z,349.35
2023-03-29T07:21:59.313Z,356.59
2023-03-29T07:22:59.315Z,354.66
2023-03-29T07:23:59.309Z,368.24
2023-03-29T07:24:59.274Z,382.90
2023-03-29T07:25:59.287Z,375.00
2023-03-29T07:27:04.172Z,390.55
2023-03-29T07:27:59.402Z,404.59
2023-03-29T07:28:59.221Z,407.07
2023-03-29T07:29:59.216Z,410.34
2023-03-29T07:30:59.279Z,425.58
2023-03-29T07:31:59.195Z,431.11
2023-03-29T07:32:59.304Z,439.08
2023-03-29T07:33:59.163Z,449.79
2023-03-29T07:34:59.150Z,460.70
2023-03-29T07:35:59.210Z,463.60
2023-03-29T07:36:59.114Z,453.78
2023-03-29T07:37:59.124Z,463.92
2023-03-29T07:38:59.082Z,461.34
2023-03-29T07:39:59.084Z,468.17
2023-03-29T07:40:59.062Z,479.66
2023-03-29T07:41:59.045Z,485.98
2023-03-29T07:42:59.127Z,480.70
2023-03-29T07:43:59.021Z,498.00
2023-03-29T07:44:59.021Z,505.20
2023-03-29T07:45:59.061Z,512.21
2023-03-29T07:46:58.998Z,497.26
2023-03-29T07:47:59.137Z,475.89
2023-03-29T07:48:58.968Z,501.01
2023-03-29T07:49:58.959Z,475.54
2023-03-29T07:50:58.942Z,486.69
2023-03-29T07:51:58.915Z,493.20
2023-03-29T07:52:58.951Z,487.41
2023-03-29T07:53:58.879Z,501.01
2023-03-29T07:54:58.869Z,517.40
2023-03-29T07:55:58.866Z,504.05
2023-03-29T07:56:58.876Z,507.90
2023-03-29T07:57:58.832Z,509.07
2023-03-29T07:58:58.849Z,508.68
2023-03-29T07:59:58.827Z,531.04
2023-03-29T08:00:58.882Z,532.32
2023-03-29T08:01:58.782Z,521.46
2023-03-29T08:02:58.805Z,534.03
2023-03-29T08:03:58.910Z,539.67
2023-03-29T08:04:58.774Z,533.60
2023-03-29T08:05:58.740Z,495.03
2023-03-29T08:06:58.729Z,495.03
2023-03-29T08:07:58.738Z,515.79
2023-03-29T08:08:58.709Z,524.75
2023-03-29T08:09:58.689Z,544.98
2023-03-29T08:10:58.683Z,537.92
2023-03-29T08:11:58.659Z,551.32
2023-03-29T08:12:58.678Z,563.47
2023-03-29T08:13:58.624Z,558.73
2023-03-29T08:14:58.633Z,553.15
2023-03-29T08:15:58.627Z,546.78
2023-03-29T08:16:58.637Z,545.88
2023-03-29T08:17:58.697Z,531.04
2023-03-29T08:18:58.626Z,546.33
2023-03-29T08:19:58.574Z,547.68
2023-03-29T08:20:58.570Z,549.04
2023-03-29T08:21:58.592Z,553.61
2023-03-29T08:22:58.518Z,542.76
2023-03-29T08:23:58.529Z,531.04
2023-03-29T08:24:58.502Z,526.83
2023-03-29T08:25:58.475Z,505.20
2023-03-29T08:26:58.496Z,518.61
2023-03-29T08:27:58.451Z,517.80
2023-03-29T08:28:58.446Z,521.05
2023-03-29T08:29:58.432Z,521.05
2023-03-29T08:30:58.452Z,501.01
2023-03-29T08:31:58.440Z,491.37
2023-03-29T08:32:58.429Z,501.39
2023-03-29T08:33:58.387Z,480.36
2023-03-29T08:34:58.450Z,471.49
2023-03-29T08:35:58.370Z,493.56
2023-03-29T08:36:58.349Z,504.81
2023-03-29T08:37:58.320Z,509.85
2023-03-29T08:38:58.349Z,505.20
2023-03-29T08:39:58.341Z,479.66
2023-03-29T08:40:58.297Z,470.16
2023-03-29T08:41:58.286Z,483.15
2023-03-29T08:42:58.306Z,476.91
2023-03-29T08:43:58.280Z,465.22
2023-03-29T08:44:58.256Z,496.89
2023-03-29T08:45:58.258Z,503.67
2023-03-29T08:46:58.281Z,497.26
2023-03-29T08:47:58.287Z,499.12
2023-03-29T08:48:58.221Z,517.40
2023-03-29T08:49:58.179Z,535.32
2023-03-29T08:50:58.173Z,534.46
2023-03-29T08:51:58.155Z,552.23
2023-03-29T08:52:58.150Z,532.75
2023-03-29T08:53:58.136Z,536.62
2023-03-29T08:54:58.126Z,547.68
2023-03-29T08:55:58.114Z,531.89
2023-03-29T08:56:58.189Z,541.87
2023-03-29T08:57:58.072Z,549.95
2023-03-29T08:58:58.067Z,547.23
2023-03-29T08:59:58.064Z,544.98
2023-03-29T09:00:58.035Z,556.39
2023-03-29T09:01:58.079Z,533.60
2023-03-29T09:02:58.143Z,533.17
2023-03-29T09:03:58.104Z,539.67
2023-03-29T09:04:57.988Z,567.32
2023-03-29T09:05:57.961Z,584.80
2023-03-29T09:06:57.960Z,582.75
2023-03-29T09:07:57.948Z,587.91
2023-03-29T09:08:57.964Z,563.00
2023-03-29T09:09:57.926Z,556.86
2023-03-29T09:10:57.910Z,577.68
2023-03-29T09:11:57.904Z,597.96
2023-03-29T09:12:57.932Z,592.63
2023-03-29T09:13:57.871Z,582.75
2023-03-29T09:14:57.854Z,597.96
2023-03-29T09:15:57.855Z,595.28
2023-03-29T09:16:57.838Z,593.69
2023-03-29T09:17:57.863Z,606.70
2023-03-29T09:18:57.808Z,588.95
2023-03-29T09:19:57.798Z,581.73
2023-03-29T09:20:57.785Z,566.36
2023-03-29T09:21:57.767Z,574.68
2023-03-29T09:22:57.763Z,577.18
2023-03-29T09:23:57.744Z,589.47
2023-03-29T09:24:57.735Z,600.66
2023-03-29T09:25:57.712Z,585.83
2023-03-29T09:26:57.715Z,570.24
2023-03-29T09:27:57.703Z,564.43
2023-03-29T09:28:57.680Z,567.32
2023-03-29T09:29:57.661Z,547.23
2023-03-29T09:30:57.641Z,532.32
2023-03-29T09:31:57.689Z,525.58
2023-03-29T09:32:57.672Z,511.03
2023-03-29T09:33:57.616Z,540.55
2023-03-29T09:34:57.597Z,555.00
2023-03-29T09:35:57.618Z,537.49
2023-03-29T09:36:57.590Z,540.11
2023-03-29T09:37:57.562Z,528.51
2023-03-29T09:38:57.564Z,539.67
2023-03-29T09:39:57.569Z,541.43
2023-03-29T09:40:57.535Z,558.73
2023-03-29T09:41:57.511Z,555.46
2023-03-29T09:42:57.522Z,542.76
2023-03-29T09:43:57.516Z,529.35
2023-03-29T09:44:57.486Z,559.68
2023-03-29T09:45:57.501Z,575.68
2023-03-29T09:46:57.450Z,564.43
2023-03-29T09:47:57.507Z,568.78
2023-03-29T09:48:57.422Z,580.21
2023-03-29T09:49:57.416Z,584.29
2023-03-29T09:50:57.401Z,583.26
2023-03-29T09:51:57.392Z,591.04
2023-03-29T09:52:57.378Z,580.21
2023-03-29T09:53:57.371Z,579.19
2023-03-29T09:54:57.337Z,553.15
2023-03-29T09:55:57.339Z,523.10
2023-03-29T09:56:57.322Z,535.75
2023-03-29T09:57:57.334Z,536.62
2023-03-29T09:58:57.310Z,525.17
2023-03-29T09:59:57.271Z,523.92
2023-03-29T10:00:57.314Z,526.00
2023-03-29T10:01:57.275Z,525.17
2023-03-29T10:02:57.360Z,559.68
2023-03-29T10:03:57.279Z,543.20
2023-03-29T10:04:57.225Z,556.86
2023-03-29T10:05:57.214Z,564.43
2023-03-29T10:06:57.183Z,547.68
2023-03-29T10:07:57.167Z,498.75
2023-03-29T10:08:58.189Z,455.02
2023-03-29T10:09:57.184Z,492.46
2023-03-29T10:10:57.160Z,509.46
2023-03-29T10:11:57.161Z,513.79
2023-03-29T10:12:57.116Z,543.20
2023-03-29T10:13:57.103Z,584.80
2023-03-29T10:14:57.117Z,574.19
2023-03-29T10:15:57.069Z,587.39
2023-03-29T10:16:57.214Z,588.43
2023-03-29T10:17:57.103Z,617.99
2023-03-29T10:18:57.033Z,627.92
2023-03-29T10:19:57.090Z,623.20
2023-03-29T10:20:57.010Z,641.25
2023-03-29T10:21:57.007Z,646.87
2023-03-29T10:22:56.992Z,620.87
2023-03-29T10:23:56.985Z,607.81
2023-03-29T10:24:56.988Z,607.81
2023-03-29T10:25:56.993Z,589.47
2023-03-29T10:26:56.961Z,587.39
2023-03-29T10:27:56.917Z,551.32
2023-03-29T10:28:56.924Z,537.05
2023-03-29T10:29:56.917Z,515.39
2023-03-29T10:30:56.885Z,535.75
2023-03-29T10:31:56.908Z,582.24
2023-03-29T10:32:56.937Z,602.84
2023-03-29T10:33:56.850Z,603.39
2023-03-29T10:34:56.840Z,601.21
2023-03-29T10:35:56.845Z,594.22
2023-03-29T10:36:56.802Z,595.82
2023-03-29T10:37:56.804Z,607.25
2023-03-29T10:38:56.792Z,552.23
2023-03-29T10:39:56.770Z,528.51
2023-03-29T10:40:56.821Z,517.80
2023-03-29T10:41:56.842Z,505.20
2023-03-29T10:42:56.723Z,539.23
2023-03-29T10:43:56.750Z,555.46
2023-03-29T10:44:56.711Z,588.43
2023-03-29T10:45:56.763Z,635.73
2023-03-29T10:46:56.698Z,645.61
2023-03-29T10:47:56.737Z,633.30
2023-03-29T10:48:56.648Z,636.95
2023-03-29T10:49:57.277Z,685.59
2023-03-29T10:50:56.637Z,718.98
2023-03-29T10:51:56.652Z,708.25
2023-03-29T10:52:56.616Z,635.73
2023-03-29T10:53:56.579Z,659.72
2023-03-29T10:54:56.677Z,648.13
2023-03-29T10:55:56.602Z,605.59
2023-03-29T10:56:56.606Z,581.73
2023-03-29T10:57:56.532Z,570.73
2023-03-29T10:58:56.552Z,639.40
2023-03-29T10:59:56.501Z,673.77
2023-03-29T11:00:56.503Z,701.52
2023-03-29T11:01:56.513Z,698.57
2023-03-29T11:02:56.541Z,666.33
2023-03-29T11:03:56.618Z,623.20
2023-03-29T11:04:56.526Z,585.83
2023-03-29T11:05:56.453Z,630.90
2023-03-29T11:06:56.439Z,657.76
2023-03-29T11:07:56.415Z,616.27
2023-03-29T11:08:56.400Z,700.04
2023-03-29T11:09:56.381Z,756.11
2023-03-29T11:10:56.387Z,765.25
2023-03-29T11:12:08.326Z,738.97
2023-03-29T11:12:56.347Z,727.64
2023-03-29T11:13:58.637Z,642.49
2023-03-29T11:14:56.314Z,661.69
2023-03-29T11:15:56.379Z,701.52
2023-03-29T11:16:56.293Z,692.74
2023-03-29T11:17:56.364Z,709.00
2023-03-29T11:18:56.276Z,755.25
2023-03-29T11:19:56.271Z,772.81
2023-03-29T11:20:56.284Z,805.08
2023-03-29T11:21:56.228Z,832.29
2023-03-29T11:22:56.252Z,860.84
2023-03-29T11:23:56.201Z,836.48
2023-03-29T11:24:56.190Z,811.97
2023-03-29T11:25:56.268Z,816.95
2023-03-29T11:26:56.171Z,827.63
2023-03-29T11:27:56.159Z,837.00
2023-03-29T11:28:56.135Z,806.55
2023-03-29T11:29:56.164Z,810.48
2023-03-29T11:30:56.188Z,802.66
2023-03-29T11:31:56.167Z,747.19
2023-03-29T11:32:56.139Z,748.45
2023-03-29T11:33:56.078Z,794.03
2023-03-29T11:34:56.283Z,843.91
2023-03-29T11:35:56.155Z,883.72
2023-03-29T11:36:56.064Z,923.61
2023-03-29T11:37:56.028Z,928.77
2023-03-29T11:38:56.020Z,927.47
2023-03-29T11:39:56.296Z,941.26
2023-03-29T11:40:55.998Z,926.18
2023-03-29T11:41:56.039Z,891.42
2023-03-29T11:42:56.148Z,877.89
2023-03-29T11:43:56.001Z,898.04
2023-03-29T11:44:56.174Z,910.96
2023-03-29T11:45:56.011Z,907.85
2023-03-29T11:46:56.004Z,925.54
2023-03-29T11:47:55.958Z,906.61
2023-03-29T11:48:56.124Z,856.41
2023-03-29T11:49:55.894Z,852.56
2023-03-29T11:50:55.869Z,858.06
2023-03-29T11:51:55.858Z,922.33
2023-03-29T11:52:55.849Z,917.87
2023-03-29T11:53:55.881Z,941.26
2023-03-29T11:54:55.831Z,947.97
2023-03-29T11:55:55.804Z,961.68
2023-03-29T11:56:55.861Z,939.27
2023-03-29T11:57:55.784Z,924.90
2023-03-29T11:58:55.826Z,937.28
2023-03-29T11:59:55.796Z,886.67
2023-03-29T12:00:55.744Z,893.22
2023-03-29T12:01:55.752Z,877.89
2023-03-29T12:02:55.847Z,920.41
2023-03-29T12:03:55.829Z,927.47
2023-03-29T12:04:55.687Z,976.51
2023-03-29T12:05:55.676Z,991.80
2023-03-29T12:06:55.671Z,965.87
2023-03-29T12:07:55.661Z,927.47
2023-03-29T12:08:55.655Z,931.37
2023-03-29T12:09:55.621Z,915.35
2023-03-29T12:10:55.675Z,926.18
2023-03-29T12:11:55.628Z,961.68
2023-03-29T12:12:55.595Z,955.46
2023-03-29T12:13:55.602Z,973.65
2023-03-29T12:14:55.620Z,975.79
2023-03-29T12:15:55.565Z,991.80
2023-03-29T12:16:55.703Z,981.55
2023-03-29T12:17:55.548Z,1012.18
2023-03-29T12:18:55.512Z,988.85
2023-03-29T12:19:55.633Z,882.55
2023-03-29T12:20:55.514Z,909.71
2023-03-29T12:21:55.503Z,917.87
2023-03-29T12:22:55.476Z,945.95
2023-03-29T12:23:55.463Z,988.11
2023-03-29T12:24:55.467Z,994.76
2023-03-29T12:25:55.454Z,1023.86
2023-03-29T12:26:55.430Z,985.18
2023-03-29T12:27:55.425Z,1000.00
2023-03-29T12:28:55.395Z,1012.95
2023-03-29T12:29:55.383Z,1019.16
2023-03-29T12:30:55.390Z,1035.82